createdAt,value
2018-05-17T00:01:32.383Z,16.10
2018-05-17T00:04:00.931Z,16.00
2018-05-17T00:06:29.579Z,15.90
2018-05-17T00:08:58.080Z,15.80
2018-05-17T00:11:26.565Z,15.80
2018-05-17T00:13:55.150Z,15.80
2018-05-17T00:16:23.691Z,15.80
2018-05-17T00:18:52.207Z,15.70
2018-05-17T00:21:20.739Z,15.60
2018-05-17T00:23:49.301Z,15.50
2018-05-17T00:26:17.921Z,15.50
2018-05-17T00:28:46.433Z,15.40
2018-05-17T00:31:14.958Z,15.50
2018-05-17T00:33:43.506Z,15.40
2018-05-17T00:36:12.032Z,15.40
2018-05-17T00:38:40.551Z,15.30
2018-05-17T00:41:09.089Z,15.20
2018-05-17T00:43:37.590Z,15.20
2018-05-17T00:46:06.191Z,15.10
2018-05-17T00:48:34.669Z,15.00
2018-05-17T00:51:03.183Z,14.90
2018-05-17T00:53:31.769Z,14.90
2018-05-17T00:56:00.328Z,14.90
2018-05-17T00:58:28.839Z,14.80
2018-05-17T01:00:57.321Z,14.70
2018-05-17T01:03:25.925Z,14.70
2018-05-17T01:05:55.271Z,14.60
2018-05-17T01:08:23.822Z,14.60
2018-05-17T01:10:52.354Z,14.60
2018-05-17T01:13:20.868Z,14.60
2018-05-17T01:15:50.121Z,14.40
2018-05-17T01:18:19.392Z,14.30
2018-05-17T01:20:47.943Z,14.30
2018-05-17T01:23:17.198Z,14.30
2018-05-17T01:25:46.449Z,14.30
2018-05-17T01:28:14.970Z,14.20
2018-05-17T01:30:43.456Z,14.20
2018-05-17T01:33:11.961Z,14.10
2018-05-17T01:35:40.476Z,14.10
2018-05-17T01:38:20.668Z,14.00
2018-05-17T01:40:49.174Z,13.90
2018-05-17T01:43:17.845Z,13.90
2018-05-17T01:45:46.383Z,13.90
2018-05-17T01:48:14.878Z,13.90
2018-05-17T01:50:43.391Z,13.90
2018-05-17T01:53:11.998Z,13.90
2018-05-17T01:55:40.627Z,13.80
2018-05-17T01:58:09.340Z,13.70
2018-05-17T02:00:37.856Z,13.70
2018-05-17T02:03:06.335Z,13.60
2018-05-17T02:05:34.814Z,13.60
2018-05-17T02:08:03.432Z,13.50
2018-05-17T02:10:31.932Z,13.50
2018-05-17T02:13:00.450Z,13.40
2018-05-17T02:15:29.012Z,13.40
2018-05-17T02:17:57.515Z,13.30
2018-05-17T02:20:26.055Z,13.30
2018-05-17T02:22:54.583Z,13.30
2018-05-17T02:25:23.142Z,13.30
2018-05-17T02:27:51.626Z,13.40
2018-05-17T02:30:20.907Z,13.30
2018-05-17T02:32:49.409Z,13.30
2018-05-17T02:35:17.923Z,13.30
2018-05-17T02:37:46.428Z,13.30
2018-05-17T02:40:15.033Z,13.30
2018-05-17T02:42:43.506Z,13.30
2018-05-17T02:45:12.029Z,13.30
2018-05-17T02:47:40.545Z,13.30
2018-05-17T02:50:09.070Z,13.30
2018-05-17T02:52:37.559Z,13.30
2018-05-17T02:55:06.059Z,13.30
2018-05-17T02:57:34.547Z,13.20
2018-05-17T03:00:03.115Z,13.20
2018-05-17T03:02:31.639Z,13.20
2018-05-17T03:05:00.193Z,13.20
2018-05-17T03:07:28.675Z,13.20
2018-05-17T03:09:57.204Z,13.20
2018-05-17T03:12:25.819Z,13.20
2018-05-17T03:14:54.429Z,13.40
2018-05-17T03:17:23.713Z,14.10
2018-05-17T03:19:52.215Z,14.00
2018-05-17T03:22:20.779Z,14.30
2018-05-17T03:24:49.294Z,14.40
2018-05-17T03:27:17.789Z,14.20
2018-05-17T03:29:46.304Z,14.10
2018-05-17T03:32:14.814Z,13.90
2018-05-17T03:34:43.318Z,13.60
2018-05-17T03:37:11.777Z,13.50
2018-05-17T03:39:40.396Z,13.60
2018-05-17T03:42:08.892Z,13.40
2018-05-17T03:44:37.405Z,13.30
2018-05-17T03:47:06.022Z,13.30
2018-05-17T03:49:34.537Z,13.20
2018-05-17T03:52:03.181Z,13.20
2018-05-17T03:54:31.682Z,13.10
2018-05-17T03:57:00.176Z,13.30
2018-05-17T03:59:28.693Z,13.80
2018-05-17T04:02:08.923Z,14.40
2018-05-17T04:04:49.967Z,15.00
2018-05-17T04:07:18.547Z,15.00
2018-05-17T04:09:47.035Z,15.50
2018-05-17T04:12:15.535Z,15.70
2018-05-17T04:14:44.170Z,15.90
2018-05-17T04:17:12.654Z,16.10
2018-05-17T04:19:41.163Z,16.20
2018-05-17T04:22:10.420Z,16.40
2018-05-17T04:24:38.929Z,16.30
2018-05-17T04:27:07.418Z,16.60
2018-05-17T04:29:35.946Z,16.40
2018-05-17T04:32:04.593Z,16.40
2018-05-17T04:34:33.872Z,16.60
2018-05-17T04:37:02.466Z,16.60
2018-05-17T04:39:30.971Z,16.70
2018-05-17T04:41:59.515Z,16.80
2018-05-17T04:44:28.188Z,16.90
2018-05-17T04:46:56.662Z,16.90
2018-05-17T04:49:25.157Z,16.70
2018-05-17T04:51:53.806Z,16.20
2018-05-17T04:54:22.297Z,16.00
2018-05-17T04:56:50.808Z,16.10
2018-05-17T04:59:19.286Z,16.30
2018-05-17T05:01:47.796Z,16.50
2018-05-17T05:04:16.303Z,16.70
2018-05-17T05:06:44.801Z,17.20
2018-05-17T05:09:13.274Z,17.60
2018-05-17T05:11:41.884Z,17.40
2018-05-17T05:14:10.514Z,17.50
2018-05-17T05:16:39.077Z,17.40
2018-05-17T05:19:07.796Z,17.10
2018-05-17T05:21:36.395Z,16.90
2018-05-17T05:24:04.922Z,17.10
2018-05-17T05:26:33.457Z,17.40
2018-05-17T05:29:01.982Z,17.00
2018-05-17T05:31:30.553Z,16.50
2018-05-17T05:33:59.193Z,16.20
2018-05-17T05:36:27.919Z,16.00
2018-05-17T05:38:56.413Z,16.00
2018-05-17T05:41:24.890Z,15.90
2018-05-17T05:43:53.379Z,15.90
2018-05-17T05:46:21.896Z,15.90
2018-05-17T05:48:51.180Z,15.60
2018-05-17T05:51:19.649Z,15.60
2018-05-17T05:53:48.140Z,15.70
2018-05-17T05:56:16.641Z,15.60
2018-05-17T05:58:45.923Z,15.80
2018-05-17T06:01:14.436Z,15.80
2018-05-17T06:03:43.799Z,15.50
2018-05-17T06:06:12.277Z,15.50
2018-05-17T06:08:40.892Z,15.40
2018-05-17T06:11:10.160Z,15.00
2018-05-17T06:13:38.643Z,15.00
2018-05-17T06:16:07.261Z,14.80
2018-05-17T06:18:35.864Z,14.70
2018-05-17T06:21:04.367Z,14.60
2018-05-17T06:23:32.874Z,14.70
2018-05-17T06:26:01.405Z,14.70
2018-05-17T06:28:29.930Z,14.90
2018-05-17T06:30:59.347Z,15.00
2018-05-17T06:33:27.821Z,15.00
2018-05-17T06:35:56.305Z,15.00
2018-05-17T06:38:24.809Z,15.00
2018-05-17T06:40:53.345Z,15.00
2018-05-17T06:43:21.846Z,15.00
2018-05-17T06:45:50.321Z,15.10
2018-05-17T06:48:18.807Z,15.00
2018-05-17T06:50:47.411Z,15.10
2018-05-17T06:53:15.890Z,15.00
2018-05-17T06:55:44.421Z,15.00
2018-05-17T06:58:12.896Z,15.10
2018-05-17T07:00:41.478Z,15.10
2018-05-17T07:03:09.952Z,15.20
2018-05-17T07:05:38.484Z,15.30
2018-05-17T07:08:06.993Z,15.20
2018-05-17T07:10:35.563Z,15.20
2018-05-17T07:13:04.084Z,15.30
2018-05-17T07:15:32.658Z,15.40
2018-05-17T07:18:01.267Z,15.40
2018-05-17T07:20:29.818Z,15.40
2018-05-17T07:22:58.318Z,15.50
2018-05-17T07:25:26.884Z,15.80
2018-05-17T07:27:56.162Z,15.60
2018-05-17T07:30:24.666Z,15.60
2018-05-17T07:32:53.382Z,15.60
2018-05-17T07:35:21.853Z,15.70
2018-05-17T07:37:50.358Z,15.80
2018-05-17T07:40:19.018Z,15.60
2018-05-17T07:42:47.566Z,15.50
2018-05-17T07:45:16.055Z,15.70
2018-05-17T07:47:44.559Z,15.80
2018-05-17T07:50:13.175Z,15.90
2018-05-17T07:52:41.700Z,15.80
2018-05-17T07:55:10.187Z,15.70
2018-05-17T07:57:38.664Z,15.60
2018-05-17T08:00:07.262Z,15.70
2018-05-17T08:02:35.755Z,15.70
2018-05-17T08:05:04.308Z,15.70
2018-05-17T08:07:32.804Z,15.70
2018-05-17T08:10:01.296Z,15.70
2018-05-17T08:12:29.922Z,15.60
2018-05-17T08:14:58.444Z,15.80
2018-05-17T08:17:26.947Z,15.90
2018-05-17T08:19:55.460Z,16.00
2018-05-17T08:22:23.955Z,16.00
2018-05-17T08:24:52.478Z,16.00
2018-05-17T08:27:20.999Z,16.00
2018-05-17T08:29:49.613Z,16.10
2018-05-17T08:32:18.102Z,16.10
2018-05-17T08:34:47.409Z,16.20
2018-05-17T08:37:16.715Z,16.30
2018-05-17T08:39:45.234Z,16.30
2018-05-17T08:42:13.825Z,16.40
2018-05-17T08:44:42.421Z,16.40
2018-05-17T08:47:11.003Z,16.20
2018-05-17T08:49:39.525Z,16.20
2018-05-17T08:52:08.104Z,16.10
2018-05-17T08:54:36.584Z,16.20
2018-05-17T08:57:05.084Z,16.10
2018-05-17T08:59:33.664Z,16.10
2018-05-17T09:02:02.897Z,16.20
2018-05-17T09:04:31.440Z,16.20
2018-05-17T09:07:00.816Z,16.50
2018-05-17T09:09:29.347Z,16.50
2018-05-17T09:11:57.848Z,16.60
2018-05-17T09:14:26.356Z,16.60
2018-05-17T09:16:54.843Z,16.60
2018-05-17T09:19:23.323Z,16.60
2018-05-17T09:21:51.879Z,16.50
2018-05-17T09:24:20.479Z,16.50
2018-05-17T09:26:48.964Z,16.50
2018-05-17T09:29:17.492Z,16.60
2018-05-17T09:31:46.117Z,16.70
2018-05-17T09:34:14.738Z,16.80
2018-05-17T09:36:43.233Z,17.00
2018-05-17T09:39:11.757Z,17.10
2018-05-17T09:41:40.267Z,17.10
2018-05-17T09:44:08.815Z,17.20
2018-05-17T09:46:37.421Z,17.10
2018-05-17T09:49:06.741Z,16.90
2018-05-17T09:51:35.240Z,16.90
2018-05-17T09:54:04.489Z,16.80
2018-05-17T09:56:33.099Z,16.80
2018-05-17T09:59:01.599Z,16.70
2018-05-17T10:01:30.091Z,16.80
2018-05-17T10:03:58.576Z,17.00
2018-05-17T10:06:27.055Z,17.00
2018-05-17T10:08:55.572Z,17.20
2018-05-17T10:11:24.167Z,17.30
2018-05-17T10:13:52.644Z,17.20
2018-05-17T10:16:21.260Z,17.20
2018-05-17T10:18:49.729Z,17.30
2018-05-17T10:21:18.192Z,17.30
2018-05-17T10:23:46.867Z,17.40
2018-05-17T10:26:15.386Z,17.50
2018-05-17T10:28:43.896Z,17.70
2018-05-17T10:31:13.243Z,17.60
2018-05-17T10:33:41.747Z,17.60
2018-05-17T10:38:31.209Z,17.80
2018-05-17T10:40:59.713Z,18.00
2018-05-17T10:43:28.304Z,18.10
2018-05-17T10:45:56.808Z,18.20
2018-05-17T10:48:25.316Z,18.10
2018-05-17T10:50:53.815Z,18.10
2018-05-17T10:53:22.305Z,18.20
2018-05-17T10:55:50.806Z,18.40
2018-05-17T10:58:19.301Z,18.60
2018-05-17T11:00:47.783Z,18.70
2018-05-17T11:03:16.708Z,18.80
2018-05-17T11:05:45.226Z,18.80
2018-05-17T11:08:13.825Z,18.70
2018-05-17T11:10:43.203Z,18.80
2018-05-17T11:13:11.683Z,18.80
2018-05-17T11:15:40.209Z,18.90
2018-05-17T11:18:08.826Z,18.80
2018-05-17T11:20:37.306Z,18.50
2018-05-17T11:23:05.825Z,18.40
2018-05-17T11:25:34.350Z,18.20
2018-05-17T11:28:02.830Z,18.40
2018-05-17T11:30:31.327Z,18.50
2018-05-17T11:32:59.900Z,18.50
2018-05-17T11:35:28.523Z,18.50
2018-05-17T11:37:57.005Z,18.50
2018-05-17T11:40:25.551Z,18.70
2018-05-17T11:42:54.053Z,18.90
2018-05-17T11:45:22.583Z,19.00
2018-05-17T11:47:51.097Z,19.20
2018-05-17T11:50:19.663Z,19.00
2018-05-17T11:52:48.888Z,18.80
2018-05-17T11:55:17.398Z,18.80
2018-05-17T11:57:45.887Z,18.70
2018-05-17T12:00:14.386Z,18.80
2018-05-17T12:02:42.940Z,18.70
2018-05-17T12:05:11.435Z,18.70
2018-05-17T12:07:39.985Z,18.80
2018-05-17T12:10:08.763Z,18.80
2018-05-17T12:12:37.369Z,18.60
2018-05-17T12:15:05.878Z,18.30
2018-05-17T12:17:34.360Z,18.30
2018-05-17T12:20:02.917Z,18.40
2018-05-17T12:22:31.412Z,18.40
2018-05-17T12:24:59.904Z,18.50
2018-05-17T12:27:28.506Z,18.70
2018-05-17T12:29:57.800Z,18.90
2018-05-17T12:32:26.418Z,19.00
2018-05-17T12:34:54.903Z,19.00
2018-05-17T12:37:23.368Z,19.20
2018-05-17T12:39:51.899Z,19.20
2018-05-17T12:49:04.258Z,19.10
2018-05-17T12:51:32.754Z,18.70
2018-05-17T12:54:01.274Z,18.70
2018-05-17T12:56:29.797Z,18.70
2018-05-17T12:58:58.269Z,18.60
2018-05-17T13:01:26.873Z,18.60
2018-05-17T13:03:55.923Z,18.50
2018-05-17T13:06:24.444Z,18.40
2018-05-17T13:08:52.939Z,18.30
2018-05-17T13:11:21.555Z,18.50
2018-05-17T13:13:50.219Z,18.50
2018-05-17T13:16:18.715Z,18.50
2018-05-17T13:18:47.216Z,18.50
2018-05-17T13:21:15.743Z,18.50
2018-05-17T13:23:44.268Z,18.50
2018-05-17T13:26:12.805Z,18.60
2018-05-17T13:28:41.330Z,18.60
2018-05-17T13:31:09.942Z,18.60
2018-05-17T13:33:38.440Z,18.50
2018-05-17T13:36:06.960Z,18.50
2018-05-17T13:38:35.464Z,18.50
2018-05-17T13:41:04.104Z,18.40
2018-05-17T13:43:32.581Z,18.40
2018-05-17T13:46:01.069Z,18.30
2018-05-17T13:48:29.659Z,18.30
2018-05-17T13:50:58.160Z,18.50
2018-05-17T13:53:26.656Z,18.40
2018-05-17T13:55:55.131Z,18.40
2018-05-17T13:58:24.459Z,18.40
2018-05-17T14:00:52.963Z,18.50
2018-05-17T14:03:21.454Z,18.40
2018-05-17T14:05:49.956Z,18.40
2018-05-17T14:08:18.513Z,18.30
2018-05-17T14:10:47.038Z,18.30
2018-05-17T14:13:16.289Z,18.30
2018-05-17T14:15:44.832Z,18.30
2018-05-17T14:18:13.344Z,18.40
2018-05-17T14:20:41.956Z,18.40
2018-05-17T14:23:10.585Z,18.50
2018-05-17T14:25:39.109Z,18.70
2018-05-17T14:28:07.708Z,18.80
2018-05-17T14:30:36.290Z,18.80
2018-05-17T14:33:04.824Z,19.00
2018-05-17T14:35:33.395Z,19.00
2018-05-17T14:38:01.968Z,19.10
2018-05-17T14:40:30.581Z,19.10
2018-05-17T14:42:59.124Z,19.30
2018-05-17T14:45:27.640Z,19.20
2018-05-17T14:47:56.220Z,19.20
2018-05-17T14:50:26.135Z,19.20
2018-05-17T14:52:54.661Z,19.00
2018-05-17T15:02:07.064Z,19.20
2018-05-17T15:04:35.631Z,18.90
2018-05-17T15:07:04.145Z,19.00
2018-05-17T15:09:32.687Z,18.90
2018-05-17T15:12:01.303Z,19.00
2018-05-17T15:14:29.896Z,19.00
2018-05-17T15:16:58.442Z,19.00
2018-05-17T15:19:26.967Z,19.00
2018-05-17T15:21:55.459Z,18.90
2018-05-17T15:24:23.934Z,18.80
2018-05-17T15:26:52.542Z,18.90
2018-05-17T15:29:21.184Z,18.80
2018-05-17T15:31:49.747Z,18.80
2018-05-17T15:34:18.228Z,18.60
2018-05-17T15:36:47.684Z,18.60
2018-05-17T15:39:16.202Z,18.50
2018-05-17T15:41:44.709Z,18.40
2018-05-17T15:44:13.193Z,18.50
2018-05-17T15:46:41.737Z,18.50
2018-05-17T15:49:10.236Z,18.50
2018-05-17T15:51:39.486Z,18.40
2018-05-17T15:54:07.996Z,18.30
2018-05-17T15:56:36.563Z,18.30
2018-05-17T15:59:05.113Z,18.20
2018-05-17T16:01:33.609Z,18.20
2018-05-17T16:04:02.166Z,18.10
2018-05-17T16:06:30.777Z,18.20
2018-05-17T16:08:59.339Z,18.30
2018-05-17T16:11:27.896Z,18.30
2018-05-17T16:13:56.467Z,18.40
2018-05-17T16:16:25.114Z,18.20
2018-05-17T16:18:53.730Z,18.20
2018-05-17T16:21:22.554Z,18.30
2018-05-17T16:23:51.268Z,18.20
2018-05-17T16:26:19.773Z,18.20
2018-05-17T16:28:48.346Z,18.10
2018-05-17T16:31:16.996Z,18.10
2018-05-17T16:33:45.675Z,18.00
2018-05-17T16:36:14.551Z,18.00
2018-05-17T16:38:43.080Z,18.10
2018-05-17T16:41:11.654Z,18.10
2018-05-17T16:43:40.212Z,18.00
2018-05-17T16:46:08.894Z,18.00
2018-05-17T16:48:37.462Z,18.10
2018-05-17T16:51:06.070Z,18.00
2018-05-17T16:53:34.583Z,17.90
2018-05-17T16:56:03.115Z,17.90
2018-05-17T16:58:32.404Z,17.80
2018-05-17T17:01:01.678Z,17.70
2018-05-17T17:03:30.210Z,17.70
2018-05-17T17:05:58.727Z,17.70
2018-05-17T17:08:27.341Z,17.60
2018-05-17T17:10:56.627Z,17.50
2018-05-17T17:13:25.109Z,17.50
2018-05-17T17:15:53.594Z,17.50
2018-05-17T17:18:22.272Z,17.40
2018-05-17T17:20:50.792Z,17.30
2018-05-17T17:23:19.290Z,17.20
2018-05-17T17:25:47.795Z,17.00
2018-05-17T17:28:16.333Z,16.90
2018-05-17T17:30:44.820Z,16.80
2018-05-17T17:33:13.321Z,16.80
2018-05-17T17:35:41.812Z,16.70
2018-05-17T17:38:11.082Z,16.60
2018-05-17T17:40:45.309Z,16.50
2018-05-17T17:43:13.798Z,16.60
2018-05-17T17:45:42.271Z,16.50
2018-05-17T17:48:10.884Z,16.50
2018-05-17T17:50:39.439Z,16.50
2018-05-17T17:53:07.972Z,16.50
2018-05-17T17:55:37.115Z,16.40
2018-05-17T17:58:05.653Z,16.40
2018-05-17T18:00:34.155Z,16.30
2018-05-17T18:03:04.773Z,16.20
2018-05-17T18:05:33.286Z,16.10
2018-05-17T18:08:01.970Z,16.00
2018-05-17T18:10:30.840Z,16.00
2018-05-17T18:13:00.583Z,16.00
2018-05-17T18:15:29.344Z,16.00
2018-05-17T18:17:58.241Z,16.00
2018-05-17T18:20:26.809Z,16.00
2018-05-17T18:22:56.141Z,16.00
2018-05-17T18:25:24.668Z,16.00
2018-05-17T18:27:53.207Z,16.00
2018-05-17T18:30:21.755Z,15.90
2018-05-17T18:32:51.180Z,15.90
2018-05-17T18:35:19.928Z,15.90
2018-05-17T18:37:48.678Z,15.90
2018-05-17T18:40:17.326Z,15.80
2018-05-17T18:42:45.859Z,15.90
2018-05-17T18:45:14.497Z,15.80
2018-05-17T18:47:44.047Z,15.70
2018-05-17T18:50:12.645Z,15.70
2018-05-17T18:52:41.288Z,15.60
2018-05-17T18:55:10.685Z,15.40
2018-05-17T18:57:39.226Z,15.40
2018-05-17T19:00:07.812Z,15.40
2018-05-17T19:02:37.247Z,15.40
2018-05-17T19:05:06.567Z,15.30
2018-05-17T19:07:35.489Z,15.40
2018-05-17T19:10:04.131Z,15.40
2018-05-17T19:12:32.839Z,15.40
2018-05-17T19:15:01.373Z,15.40
2018-05-17T19:17:29.886Z,15.40
2018-05-17T19:19:58.449Z,15.40
2018-05-17T19:22:26.997Z,15.30
2018-05-17T19:24:55.459Z,15.30
2018-05-17T19:27:24.197Z,15.20
2018-05-17T19:29:52.687Z,15.20
2018-05-17T19:32:21.930Z,14.90
2018-05-17T19:34:51.305Z,14.80
2018-05-17T19:37:19.811Z,14.70
2018-05-17T19:39:48.407Z,14.70
2018-05-17T19:42:16.881Z,14.70
2018-05-17T19:44:45.362Z,14.60
2018-05-17T19:47:13.896Z,14.60
2018-05-17T19:49:42.458Z,14.60
2018-05-17T19:52:10.991Z,14.70
2018-05-17T19:54:39.491Z,14.70
2018-05-17T19:57:08.009Z,14.70
2018-05-17T19:59:36.599Z,14.70
2018-05-17T20:02:05.175Z,14.60
2018-05-17T20:04:33.890Z,14.60
2018-05-17T20:07:02.392Z,14.70
2018-05-17T20:09:30.878Z,14.70
2018-05-17T20:11:59.389Z,14.60
2018-05-17T20:14:28.797Z,14.50
2018-05-17T20:16:57.314Z,14.40
2018-05-17T20:19:25.948Z,14.40
2018-05-17T20:21:54.436Z,14.40
2018-05-17T20:24:22.909Z,14.30
2018-05-17T20:26:51.494Z,14.30
2018-05-17T20:29:20.092Z,14.10
2018-05-17T20:31:48.570Z,14.00
2018-05-17T20:34:17.050Z,14.00
2018-05-17T20:36:45.662Z,13.90
2018-05-17T20:39:14.129Z,14.00
2018-05-17T20:41:42.648Z,14.00
2018-05-17T20:44:11.128Z,13.90
2018-05-17T20:46:39.617Z,13.90
2018-05-17T20:49:08.131Z,13.80
2018-05-17T20:51:36.618Z,13.80
2018-05-17T20:54:05.279Z,13.70
2018-05-17T20:56:33.786Z,13.70
2018-05-17T20:59:02.564Z,13.60
2018-05-17T21:01:31.218Z,13.60
2018-05-17T21:03:59.796Z,13.70
2018-05-17T21:06:28.362Z,13.70
2018-05-17T21:08:57.863Z,13.60
2018-05-17T21:11:26.471Z,13.60
2018-05-17T21:13:55.131Z,13.60
2018-05-17T21:16:23.684Z,13.60
2018-05-17T21:18:53.057Z,13.80
2018-05-17T21:21:21.643Z,13.80
2018-05-17T21:23:50.990Z,13.70
2018-05-17T21:26:20.721Z,13.70
2018-05-17T21:28:49.336Z,13.60
2018-05-17T21:31:17.912Z,13.70
2018-05-17T21:33:46.460Z,13.60
2018-05-17T21:36:15.487Z,13.50
2018-05-17T21:38:44.099Z,13.40
2018-05-17T21:41:12.709Z,13.50
2018-05-17T21:43:41.305Z,13.50
2018-05-17T21:46:10.010Z,13.50
2018-05-17T21:48:38.802Z,13.50
2018-05-17T21:51:08.270Z,13.40
2018-05-17T21:53:36.971Z,13.40
2018-05-17T21:56:05.602Z,13.40
2018-05-17T21:58:34.204Z,13.40
2018-05-17T22:01:03.576Z,13.20
2018-05-17T22:03:32.141Z,13.20
2018-05-17T22:06:00.768Z,13.20
2018-05-17T22:08:29.418Z,13.20
2018-05-17T22:10:57.983Z,13.20
2018-05-17T22:13:26.933Z,13.20
2018-05-17T22:15:55.629Z,13.30
2018-05-17T22:18:24.306Z,13.30
2018-05-17T22:20:52.875Z,13.20
2018-05-17T22:23:21.508Z,13.20
2018-05-17T22:25:50.166Z,13.10
2018-05-17T22:28:18.804Z,12.90
2018-05-17T22:30:47.520Z,12.90
2018-05-17T22:33:17.317Z,12.60
2018-05-17T22:35:46.512Z,12.60
2018-05-17T22:38:15.914Z,12.60
2018-05-17T22:40:44.538Z,12.60
2018-05-17T22:43:13.215Z,12.60
2018-05-17T22:45:42.252Z,12.60
2018-05-17T22:48:10.995Z,12.60
2018-05-17T22:50:39.556Z,12.60
2018-05-17T22:53:08.172Z,12.50
2018-05-17T22:55:36.849Z,12.60
2018-05-17T22:58:19.886Z,12.60
2018-05-17T23:00:48.624Z,12.60
2018-05-17T23:03:17.289Z,12.60
2018-05-17T23:05:46.200Z,12.70
2018-05-17T23:08:15.969Z,12.70
2018-05-17T23:10:44.655Z,12.70
2018-05-17T23:13:14.151Z,12.60
2018-05-17T23:15:43.326Z,12.60
2018-05-17T23:18:12.871Z,12.60
2018-05-17T23:20:42.381Z,12.60
2018-05-17T23:23:11.434Z,12.50
2018-05-17T23:25:40.304Z,12.50
2018-05-17T23:28:10.267Z,12.50
2018-05-17T23:30:39.443Z,12.40
2018-05-17T23:33:09.430Z,12.40
2018-05-17T23:35:38.276Z,12.40
2018-05-17T23:38:07.173Z,12.40
2018-05-17T23:41:02.654Z,12.40
2018-05-17T23:43:31.655Z,12.40
2018-05-17T23:46:00.586Z,12.40
2018-05-17T23:48:29.768Z,12.50
2018-05-17T23:50:58.578Z,12.50
2018-05-17T23:53:27.393Z,12.50
2018-05-17T23:55:58.127Z,12.50
2018-05-17T23:58:26.861Z,12.50
